Time;durP1;ratioP1;P1;durP2;ratioP2;P2;SDS_P1;SDS_P2;PMS_P1;PMS_P2;Temp;Humidity;BMP_temperature;BMP_pressure;BME280_temperature;BME280_humidity;BME280_pressure;Samples;Min_cycle;Max_cycle;Signal;HPM_P1;HPM_P2
2021/12/09 00:01:41;;;;;;;20.35;9.95;;;;;;;0.67;91.52;92498.81;4803933;29;20046;-63
2021/12/09 00:04:11;;;;;;;22.05;10.30;;;;;;;0.74;91.89;92504.94;4817281;29;20066;-62
2021/12/09 00:06:39;;;;;;;17.20;9.00;;;;;;;0.74;91.51;92498.78;4829751;29;20046;-63
2021/12/09 00:09:09;;;;;;;18.80;8.23;;;;;;;0.81;90.89;92509.59;4839423;29;20125;-62
2021/12/09 00:11:43;;;;;;;19.25;9.10;;;;;;;0.78;91.29;92505.72;4839606;29;20045;-63
2021/12/09 00:14:22;;;;;;;18.25;8.15;;;;;;;0.51;91.58;92502.66;4838379;29;20049;-63
2021/12/09 00:16:50;;;;;;;23.52;10.70;;;;;;;0.37;92.89;92508.06;4838699;29;20050;-63
2021/12/09 00:19:17;;;;;;;17.48;9.18;;;;;;;0.36;93.10;92504.59;4839623;29;20058;-63
2021/12/09 00:21:44;;;;;;;17.70;8.70;;;;;;;0.37;93.38;92508.84;4840099;29;20050;-63
2021/12/09 00:24:11;;;;;;;22.05;9.98;;;;;;;0.49;92.97;92509.63;4839243;29;20050;-63
2021/12/09 00:26:39;;;;;;;19.58;10.10;;;;;;;0.56;92.85;92513.09;4839732;29;20072;-63
2021/12/09 00:29:07;;;;;;;16.00;8.30;;;;;;;0.62;92.19;92508.03;4838044;29;20089;-62
2021/12/09 00:31:34;;;;;;;20.05;10.20;;;;;;;0.47;92.81;92511.94;4839858;29;20080;-63
2021/12/09 00:34:01;;;;;;;17.63;8.90;;;;;;;0.53;92.76;92510.38;4839517;29;20054;-61
2021/12/09 00:36:43;;;;;;;18.63;9.68;;;;;;;0.42;92.44;92512.31;4839787;29;20045;-63
2021/12/09 00:39:12;;;;;;;16.70;8.80;;;;;;;0.58;92.31;92512.69;4839592;29;20516;-63
2021/12/09 00:41:39;;;;;;;17.77;9.07;;;;;;;0.38;93.17;92512.28;4853724;29;20134;-64
2021/12/09 00:44:07;;;;;;;19.83;9.00;;;;;;;0.46;92.78;92513.84;4853266;29;20054;-63
2021/12/09 00:46:34;;;;;;;18.23;9.00;;;;;;;0.46;92.88;92511.13;4839564;29;20118;-64
2021/12/09 00:49:01;;;;;;;21.17;10.10;;;;;;;0.18;93.84;92514.59;4839269;29;20049;-63
2021/12/09 00:51:28;;;;;;;20.88;9.50;;;;;;;0.28;93.99;92515.75;4838425;29;20050;-64
2021/12/09 00:53:55;;;;;;;21.95;10.35;;;;;;;0.47;93.39;92512.69;4836812;29;20058;-64
2021/12/09 00:56:21;;;;;;;19.73;9.85;;;;;;;0.64;93.04;92521.16;4820769;29;20043;-64
2021/12/09 00:58:49;;;;;;;20.87;9.90;;;;;;;0.68;92.63;92511.91;4816861;29;20451;-63
2021/12/09 01:01:16;;;;;;;17.30;9.23;;;;;;;0.76;91.97;92521.53;4802602;29;20047;-64
2021/12/09 01:03:49;;;;;;;18.88;9.23;;;;;;;0.78;91.96;92511.13;4803327;29;20050;-63
2021/12/09 01:06:16;;;;;;;19.55;9.88;;;;;;;0.74;91.88;92520.38;4823148;29;20075;-63
2021/12/09 01:08:43;;;;;;;19.35;10.02;;;;;;;0.81;91.90;92520.38;4839321;29;20058;-63
2021/12/09 01:11:12;;;;;;;21.13;10.30;;;;;;;0.84;91.13;92518.84;4839065;29;20080;-63
2021/12/09 01:13:41;;;;;;;19.55;10.50;;;;;;;0.84;91.50;92526.94;4839425;29;20058;-63
2021/12/09 01:16:09;;;;;;;18.05;9.30;;;;;;;0.79;91.02;92522.72;4838850;29;20084;-63
2021/12/09 01:18:37;;;;;;;18.83;8.93;;;;;;;0.72;91.25;92523.47;4839438;29;20046;-63
2021/12/09 01:21:05;;;;;;;21.00;9.85;;;;;;;0.72;91.64;92523.47;4838940;29;20042;-62
2021/12/09 01:23:33;;;;;;;17.13;8.60;;;;;;;0.74;91.45;92523.84;4838331;29;20098;-63
2021/12/09 01:26:03;;;;;;;24.42;10.85;;;;;;;0.59;91.25;92531.19;4842766;29;20068;-63
2021/12/09 01:28:39;;;;;;;22.63;10.07;;;;;;;0.68;91.78;92528.09;4841964;29;20046;-63
2021/12/09 01:31:07;;;;;;;26.50;11.10;;;;;;;0.36;93.04;92536.19;4842156;29;20058;-62
2021/12/09 01:33:35;;;;;;;25.98;11.63;;;;;;;0.12;94.08;92540.41;4842824;29;20046;-63
2021/12/09 01:36:05;;;;;;;26.93;11.90;;;;;;;-0.04;95.01;92543.47;4856481;29;20117;-63
2021/12/09 01:38:33;;;;;;;24.13;10.48;;;;;;;0.22;95.12;92533.50;4842378;29;20350;-63
2021/12/09 01:41:02;;;;;;;16.25;7.88;;;;;;;0.25;93.87;92538.91;4842104;29;20054;-62
2021/12/09 01:43:29;;;;;;;9.75;5.30;;;;;;;0.13;93.64;92534.63;4856476;29;20052;-63
2021/12/09 01:46:09;;;;;;;7.65;3.95;;;;;;;0.29;93.16;92538.91;4842484;29;20053;-63
2021/12/09 01:48:37;;;;;;;6.53;3.63;;;;;;;0.25;93.35;92543.53;4841741;29;20236;-63
2021/12/09 01:51:06;;;;;;;8.82;4.35;;;;;;;0.01;94.29;92550.44;4841975;29;20054;-62
2021/12/09 01:53:33;;;;;;;8.60;4.30;;;;;;;0.12;94.48;92554.69;4842170;29;20105;-63
2021/12/09 01:56:03;;;;;;;7.55;4.00;;;;;;;0.31;93.66;92550.09;4842354;29;20053;-63
2021/12/09 01:58:31;;;;;;;6.80;3.50;;;;;;;0.27;93.61;92565.50;4855031;29;20050;-63
2021/12/09 02:00:57;;;;;;;5.60;3.30;;;;;;;0.18;93.50;92558.56;4841876;29;20062;-63
2021/12/09 02:03:25;;;;;;;6.45;3.50;;;;;;;0.24;93.40;92564.31;4841759;29;20045;-63
2021/12/09 02:05:53;;;;;;;7.60;3.92;;;;;;;0.07;93.40;92567.78;4840882;29;20061;-64
2021/12/09 02:08:21;;;;;;;6.68;3.95;;;;;;;0.16;93.90;92570.84;4841614;29;20058;-62
2021/12/09 02:10:49;;;;;;;6.07;3.28;;;;;;;0.18;93.12;92571.25;4842126;29;20053;-63
2021/12/09 02:13:17;;;;;;;5.37;3.10;;;;;;;0.17;92.96;92572.41;4841684;29;20068;-62
2021/12/09 02:15:44;;;;;;;8.07;3.88;;;;;;;0.03;94.05;92581.25;4842011;29;20054;-63
2021/12/09 02:18:13;;;;;;;7.43;3.90;;;;;;;0.11;93.82;92584.75;4841493;29;20507;-62
2021/12/09 02:20:44;;;;;;;8.85;4.30;;;;;;;0.00;94.17;92587.41;4841891;29;20060;-63
2021/12/09 02:23:15;;;;;;;10.00;5.03;;;;;;;-0.04;95.16;92598.19;4841223;29;20054;-62
2021/12/09 02:25:44;;;;;;;9.67;4.70;;;;;;;0.04;94.81;92600.88;4841895;29;20050;-62
2021/12/09 02:28:14;;;;;;;8.85;4.25;;;;;;;-0.01;95.07;92594.72;4841267;29;20054;-62
2021/12/09 02:30:42;;;;;;;10.05;4.05;;;;;;;0.04;94.32;92596.28;4841383;29;20075;-63
2021/12/09 02:33:09;;;;;;;6.80;3.88;;;;;;;0.09;94.06;92598.59;4839418;29;20062;-63
2021/12/09 02:35:38;;;;;;;7.53;3.97;;;;;;;0.02;94.18;92592.41;4811552;29;20049;-63
2021/12/09 02:38:07;;;;;;;7.87;4.00;;;;;;;0.13;93.44;92601.31;4822514;29;20058;-64
2021/12/09 02:40:34;;;;;;;8.30;3.97;;;;;;;0.11;93.48;92609.00;4823184;29;20053;-62
2021/12/09 02:43:05;;;;;;;9.40;4.22;;;;;;;0.12;93.17;92607.84;4822494;29;20057;-60
2021/12/09 02:45:31;;;;;;;9.18;4.30;;;;;;;0.12;94.07;92605.16;4821923;29;20043;-63
2021/12/09 02:47:59;;;;;;;9.45;4.85;;;;;;;0.08;94.38;92612.47;4823164;29;20110;-63
2021/12/09 02:50:26;;;;;;;9.40;4.73;;;;;;;0.13;93.88;92612.88;4830478;29;20174;-62
2021/12/09 02:52:52;;;;;;;8.63;4.53;;;;;;;0.00;94.54;92619.78;4841323;29;20050;-63
2021/12/09 02:55:19;;;;;;;8.05;4.30;;;;;;;0.03;94.03;92612.84;4814307;29;20061;-62
2021/12/09 02:57:46;;;;;;;9.07;4.60;;;;;;;-0.07;94.20;92609.72;4807494;29;20046;-63
2021/12/09 03:00:14;;;;;;;7.95;4.13;;;;;;;0.08;93.32;92615.16;4804400;29;20058;-62
2021/12/09 03:02:44;;;;;;;7.20;3.87;;;;;;;-0.06;93.87;92616.69;4804476;29;20050;-62
2021/12/09 03:05:11;;;;;;;7.35;3.75;;;;;;;0.15;92.92;92609.78;4808379;29;20058;-63
2021/12/09 03:07:41;;;;;;;6.95;3.22;;;;;;;-0.02;91.73;92605.88;4840806;29;20054;-63
2021/12/09 03:10:26;;;;;;;9.50;3.47;;;;;;;-0.01;92.80;92607.44;4840171;29;20058;-62
2021/12/09 03:13:00;;;;;;;7.43;3.22;;;;;;;0.02;92.29;92606.69;4840894;29;20265;-63
2021/12/09 03:15:26;;;;;;;9.00;3.50;;;;;;;-0.08;92.37;92605.50;4840117;29;21604;-63
2021/12/09 03:17:53;;;;;;;6.35;3.10;;;;;;;-0.12;91.53;92603.91;4840760;29;20050;-63
2021/12/09 03:20:20;;;;;;;6.63;2.80;;;;;;;-0.06;91.47;92616.69;4854516;29;20060;-62
2021/12/09 03:22:48;;;;;;;7.65;2.92;;;;;;;0.04;91.88;92612.47;4840523;29;20054;-63
2021/12/09 03:25:18;;;;;;;8.02;3.15;;;;;;;-0.05;91.83;92612.81;4839833;29;20577;-62
2021/12/09 03:27:46;;;;;;;7.63;3.00;;;;;;;0.09;91.62;92612.09;4840531;29;20050;-62
2021/12/09 03:30:17;;;;;;;8.35;3.25;;;;;;;0.10;91.69;92619.03;4840198;29;20061;-62
2021/12/09 03:32:44;;;;;;;9.10;3.53;;;;;;;0.06;92.12;92626.34;4840338;29;20056;-62
2021/12/09 03:35:13;;;;;;;9.38;3.63;;;;;;;0.11;92.05;92630.59;4839930;29;20514;-62
2021/12/09 03:37:41;;;;;;;7.25;3.83;;;;;;;0.24;91.65;92633.69;4839330;29;20050;-62
2021/12/09 03:40:10;;;;;;;6.67;3.27;;;;;;;0.33;90.97;92634.13;4839648;29;20122;-62
2021/12/09 03:42:37;;;;;;;7.43;3.25;;;;;;;0.18;91.04;92627.91;4854433;29;20077;-62
2021/12/09 03:45:06;;;;;;;7.85;3.60;;;;;;;0.23;90.98;92632.94;4839905;29;20102;-62
2021/12/09 03:47:34;;;;;;;9.02;3.45;;;;;;;0.13;91.56;92625.59;4839446;29;20046;-62
2021/12/09 03:50:03;;;;;;;10.00;4.57;;;;;;;0.13;92.26;92628.28;4839977;29;20065;-59
2021/12/09 03:52:30;;;;;;;15.23;6.70;;;;;;;0.25;91.83;92630.63;4840313;29;20053;-62
2021/12/09 03:54:57;;;;;;;7.10;3.03;;;;;;;0.09;90.81;92639.06;4836498;29;20061;-63
2021/12/09 03:57:24;;;;;;;6.32;2.78;;;;;;;0.17;90.56;92648.72;4815672;29;20048;-62
2021/12/09 03:59:51;;;;;;;5.53;3.10;;;;;;;0.31;90.17;92647.22;4805936;29;20043;-63
2021/12/09 04:02:20;;;;;;;6.70;2.95;;;;;;;0.31;89.49;92645.28;4802861;29;20058;-63
2021/12/09 04:04:46;;;;;;;7.90;2.93;;;;;;;0.37;89.16;92645.69;4803655;29;20046;-63
2021/12/09 04:07:13;;;;;;;9.15;3.25;;;;;;;-0.05;89.11;92641.72;4837797;29;20046;-63
2021/12/09 04:09:40;;;;;;;15.55;3.50;;;;;;;0.13;89.05;92649.88;4839905;29;20053;-62
2021/12/09 04:12:09;;;;;;;9.98;3.42;;;;;;;0.17;89.15;92650.66;4839117;29;20062;-62
2021/12/09 04:14:37;;;;;;;9.95;3.00;;;;;;;0.07;88.62;92646.00;4839571;29;20050;-63
2021/12/09 04:17:04;;;;;;;8.13;3.40;;;;;;;-0.02;88.74;92649.81;4839369;29;20054;-62
2021/12/09 04:19:30;;;;;;;7.05;3.13;;;;;;;0.02;88.60;92649.84;4839466;29;20052;-62
2021/12/09 04:21:57;;;;;;;10.57;3.08;;;;;;;0.12;88.97;92656.41;4838476;29;20074;-62
2021/12/09 04:24:24;;;;;;;34.22;3.65;;;;;;;0.01;88.37;92658.31;4838169;29;20526;-62
2021/12/09 04:26:52;;;;;;;7.60;2.90;;;;;;;0.12;88.13;92659.09;4839470;29;20156;-62
2021/12/09 04:29:20;;;;;;;7.53;3.20;;;;;;;0.07;88.16;92667.56;4839510;29;20046;-62
2021/12/09 04:31:47;;;;;;;7.20;3.05;;;;;;;0.07;88.18;92672.97;4839460;29;20061;-62
2021/12/09 04:34:16;;;;;;;7.45;2.70;;;;;;;0.15;88.72;92674.53;4839218;29;20054;-62
2021/12/09 04:36:43;;;;;;;10.93;3.00;;;;;;;0.21;88.24;92677.66;4839878;29;20065;-62
2021/12/09 04:39:10;;;;;;;7.03;2.72;;;;;;;0.12;88.75;92680.69;4839341;29;20492;-62
2021/12/09 04:41:37;;;;;;;14.27;3.40;;;;;;;0.14;88.71;92687.25;4839396;29;20042;-62
2021/12/09 04:44:06;;;;;;;11.20;3.10;;;;;;;0.14;88.43;92689.16;4838895;29;20045;-61
2021/12/09 04:46:33;;;;;;;10.80;3.60;;;;;;;0.10;88.63;92693.78;4839420;29;20052;-62
2021/12/09 04:49:00;;;;;;;8.45;3.60;;;;;;;0.06;88.85;92695.69;4837934;29;20056;-62
2021/12/09 04:51:26;;;;;;;8.82;3.30;;;;;;;-0.05;89.34;92701.81;4838495;29;21037;-62
2021/12/09 04:53:53;;;;;;;7.23;2.70;;;;;;;0.09;88.71;92705.72;4839565;29;20050;-63
2021/12/09 04:56:20;;;;;;;6.93;2.80;;;;;;;0.09;88.63;92706.50;4818039;29;20063;-62
2021/12/09 04:58:49;;;;;;;9.45;2.97;;;;;;;0.03;89.16;92712.63;4815487;29;20595;-62
2021/12/09 05:01:16;;;;;;;13.05;3.80;;;;;;;0.04;89.24;92714.16;4806299;29;20061;-62
2021/12/09 05:03:47;;;;;;;7.88;3.03;;;;;;;0.06;89.35;92715.38;4806418;29;20099;-62
2021/12/09 05:06:15;;;;;;;13.60;3.40;;;;;;;-0.02;89.28;92714.53;4826043;29;20056;-62
2021/12/09 05:08:46;;;;;;;10.70;3.50;;;;;;;0.05;89.68;92729.97;4842816;29;20069;-62
2021/12/09 05:11:28;;;;;;;11.15;2.97;;;;;;;0.09;89.66;92725.38;4842472;29;20084;-62
2021/12/09 05:13:56;;;;;;;11.93;3.28;;;;;;;0.23;89.19;92732.75;4842881;29;20053;-63
2021/12/09 05:16:23;;;;;;;7.63;3.20;;;;;;;0.11;89.75;92741.97;4856419;29;20050;-62
2021/12/09 05:18:57;;;;;;;11.63;4.60;;;;;;;0.27;89.37;92738.19;4841559;29;20118;-62
2021/12/09 05:21:28;;;;;;;10.73;3.60;;;;;;;-0.01;89.75;92743.06;4842377;29;20050;-63
2021/12/09 05:23:58;;;;;;;13.95;4.03;;;;;;;0.09;90.46;92746.19;4841529;29;20072;-62
2021/12/09 05:26:30;;;;;;;14.85;6.13;;;;;;;-0.04;91.24;92749.22;4842206;29;20058;-63
2021/12/09 05:28:57;;;;;;;12.60;5.15;;;;;;;0.05;90.84;92751.56;4842454;29;20052;-62
2021/12/09 05:34:15;;;;;;;17.13;4.35;;;;;;;-0.03;91.79;92748.03;4841898;29;20129;-62
2021/12/09 05:36:42;;;;;;;10.85;4.03;;;;;;;0.07;91.71;92753.88;4842495;29;20042;-62
2021/12/09 05:39:11;;;;;;;13.95;4.68;;;;;;;0.24;91.17;92749.72;4841992;29;20058;-62
2021/12/09 05:41:39;;;;;;;13.52;4.03;;;;;;;0.23;90.29;92751.66;4842040;29;20042;-62
2021/12/09 05:44:07;;;;;;;16.50;4.87;;;;;;;0.20;91.18;92757.78;4841553;29;20058;-62
2021/12/09 05:46:37;;;;;;;12.75;4.22;;;;;;;0.34;91.08;92759.78;4842174;29;20054;-62
2021/12/09 05:49:05;;;;;;;15.38;5.35;;;;;;;0.42;90.51;92757.91;4841674;29;20050;-61
2021/12/09 05:51:33;;;;;;;17.52;6.68;;;;;;;0.40;90.28;92758.28;4841680;29;20041;-62
2021/12/09 05:53:59;;;;;;;15.00;6.30;;;;;;;0.41;90.78;92759.06;4842128;29;20064;-62
2021/12/09 05:56:26;;;;;;;19.27;6.13;;;;;;;0.47;90.89;92768.34;4820324;29;20100;-60
2021/12/09 05:58:53;;;;;;;15.35;6.57;;;;;;;0.54;90.64;92771.06;4807925;29;20545;-62
2021/12/09 06:01:20;;;;;;;18.27;6.43;;;;;;;0.32;91.19;92767.50;4804722;29;20063;-61
2021/12/09 06:03:47;;;;;;;14.45;4.80;;;;;;;0.16;91.86;92763.19;4805334;29;20050;-62
2021/12/09 06:06:14;;;;;;;14.60;5.18;;;;;;;0.17;91.60;92763.97;4838637;29;20077;-61
2021/12/09 06:08:41;;;;;;;18.50;5.20;;;;;;;0.33;91.55;92767.13;4855581;29;20054;-62
2021/12/09 06:11:11;;;;;;;15.82;5.75;;;;;;;0.45;90.70;92771.41;4840288;29;20060;-62
2021/12/09 06:13:39;;;;;;;12.68;5.78;;;;;;;0.52;90.16;92774.13;4816155;29;20051;-62
2021/12/09 06:16:08;;;;;;;13.85;5.45;;;;;;;0.44;90.09;92775.25;4804425;29;20062;-61
2021/12/09 06:18:35;;;;;;;13.38;4.80;;;;;;;0.39;90.51;92779.09;4813051;29;20054;-63
2021/12/09 06:21:03;;;;;;;13.77;4.53;;;;;;;0.27;90.12;92779.44;4822349;29;20477;-61
2021/12/09 06:23:30;;;;;;;12.27;5.00;;;;;;;-0.06;90.98;92777.69;4804692;29;20069;-63
2021/12/09 06:25:57;;;;;;;10.85;4.25;;;;;;;0.11;90.16;92782.41;4818533;29;20057;-64
2021/12/09 06:28:23;;;;;;;14.68;5.00;;;;;;;0.21;90.06;92780.94;4804551;29;20424;-64
2021/12/09 06:30:50;;;;;;;13.60;5.45;;;;;;;0.33;89.86;92777.91;4804925;29;20496;-62
2021/12/09 06:33:17;;;;;;;12.60;4.57;;;;;;;0.17;89.88;92772.81;4804111;29;20077;-62
2021/12/09 06:35:44;;;;;;;11.52;4.75;;;;;;;0.37;89.36;92778.69;4804774;29;20050;-62
2021/12/09 06:38:15;;;;;;;12.75;6.10;;;;;;;0.45;89.60;92781.44;4803638;29;20067;-61
2021/12/09 06:40:44;;;;;;;26.35;9.15;;;;;;;0.36;90.26;92779.06;4818099;29;20416;-62
2021/12/09 06:43:11;;;;;;;21.98;7.95;;;;;;;0.27;90.45;92776.72;4804227;29;20057;-63
2021/12/09 06:45:38;;;;;;;12.83;5.47;;;;;;;-0.03;91.11;92769.63;4804923;29;20049;-62
2021/12/09 06:48:06;;;;;;;10.30;4.57;;;;;;;0.09;90.53;92773.94;4817913;29;20047;-62
2021/12/09 06:50:32;;;;;;;11.07;4.53;;;;;;;0.29;89.41;92785.22;4838548;29;20423;-62
2021/12/09 06:52:59;;;;;;;13.32;4.82;;;;;;;0.38;88.97;92777.56;4839731;29;20046;-62
2021/12/09 06:55:26;;;;;;;13.45;4.97;;;;;;;0.43;88.86;92771.03;4820234;29;20864;-62
2021/12/09 06:57:53;;;;;;;10.47;4.33;;;;;;;0.46;87.85;92780.28;4822023;29;20417;-62
2021/12/09 07:00:28;;;;;;;9.98;3.67;;;;;;;0.45;87.69;92776.03;4822184;29;20393;-62
2021/12/09 07:02:55;;;;;;;13.32;4.75;;;;;;;0.37;88.25;92780.63;4821211;29;20042;-62
2021/12/09 07:05:25;;;;;;;22.20;5.95;;;;;;;0.38;87.59;92774.06;4825724;29;20566;-62
2021/12/09 07:07:52;;;;;;;10.35;4.75;;;;;;;0.40;87.39;92785.25;4840818;29;20057;-61
2021/12/09 07:10:21;;;;;;;11.23;3.90;;;;;;;0.44;86.96;92779.88;4854063;29;20054;-61
2021/12/09 07:12:48;;;;;;;15.27;5.30;;;;;;;0.38;87.28;92796.44;4840512;29;20069;-62
2021/12/09 07:15:16;;;;;;;8.27;3.78;;;;;;;0.37;86.49;92796.81;4840225;29;20046;-61
2021/12/09 07:17:43;;;;;;;10.23;4.45;;;;;;;0.14;87.52;92794.38;4840492;29;20058;-62
2021/12/09 07:20:15;;;;;;;8.98;4.00;;;;;;;0.31;88.18;92803.72;4839983;29;20052;-63
2021/12/09 07:22:44;;;;;;;9.60;4.27;;;;;;;0.28;87.25;92801.78;4830766;29;20110;-62
2021/12/09 07:25:12;;;;;;;10.90;4.70;;;;;;;0.45;87.27;92806.50;4820569;29;20068;-62
2021/12/09 07:27:39;;;;;;;36.28;10.00;;;;;;;0.38;88.01;92819.94;4821387;29;20046;-62
2021/12/09 07:30:07;;;;;;;13.43;4.60;;;;;;;0.28;87.34;92821.47;4834494;29;20061;-62
2021/12/09 07:32:35;;;;;;;11.18;4.70;;;;;;;0.25;87.52;92818.75;4821719;29;20055;-63
2021/12/09 07:35:04;;;;;;;10.50;4.53;;;;;;;0.33;86.80;92823.78;4821864;29;20404;-61
2021/12/09 07:37:30;;;;;;;7.90;3.30;;;;;;;0.14;87.99;92829.44;4821824;29;20054;-62
2021/12/09 07:39:57;;;;;;;7.03;3.13;;;;;;;0.10;88.31;92834.03;4821646;29;20050;-63
2021/12/09 07:42:24;;;;;;;9.80;3.40;;;;;;;0.11;88.23;92838.31;4820275;29;20058;-63
2021/12/09 07:44:52;;;;;;;9.73;3.60;;;;;;;0.08;88.01;92839.84;4820885;29;20047;-63
2021/12/09 07:47:18;;;;;;;8.53;3.30;;;;;;;0.09;88.62;92838.66;4821485;29;20053;-62
2021/12/09 07:49:45;;;;;;;8.30;3.40;;;;;;;0.15;88.12;92841.78;4825750;29;20050;-62
2021/12/09 07:52:12;;;;;;;21.33;8.15;;;;;;;0.29;88.57;92841.88;4839426;29;20042;-62
2021/12/09 07:54:39;;;;;;;20.83;9.18;;;;;;;0.45;88.48;92847.00;4838530;29;20058;-63
2021/12/09 07:57:05;;;;;;;12.82;5.10;;;;;;;0.57;88.12;92846.66;4839344;29;20060;-62
2021/12/09 07:59:32;;;;;;;14.27;6.13;;;;;;;0.53;87.89;92847.81;4838759;29;20049;-63
2021/12/09 08:01:59;;;;;;;13.60;6.28;;;;;;;0.55;87.31;92848.97;4839922;29;20062;-63
2021/12/09 08:04:26;;;;;;;15.98;6.85;;;;;;;0.69;87.71;92847.50;4838630;29;20784;-63
2021/12/09 08:06:53;;;;;;;21.35;7.00;;;;;;;0.77;86.75;92857.94;4840005;29;20058;-63
2021/12/09 08:09:20;;;;;;;19.23;6.55;;;;;;;0.75;87.04;92862.19;4839577;29;20496;-62
2021/12/09 08:11:47;;;;;;;26.83;8.33;;;;;;;0.78;85.99;92859.47;4853662;29;20149;-62
2021/12/09 08:14:16;;;;;;;25.38;8.90;;;;;;;0.76;86.04;92863.72;4839156;29;20049;-62
2021/12/09 08:16:43;;;;;;;25.58;8.60;;;;;;;0.72;84.84;92871.03;4839804;29;20377;-62
2021/12/09 08:19:12;;;;;;;19.58;6.70;;;;;;;0.71;85.37;92867.56;4839131;29;20061;-62
2021/12/09 08:21:40;;;;;;;10.90;4.40;;;;;;;0.72;85.44;92866.38;4839917;29;20046;-63
2021/12/09 08:24:08;;;;;;;10.43;3.97;;;;;;;0.87;85.21;92880.75;4839003;29;20090;-62
2021/12/09 08:26:36;;;;;;;36.80;14.02;;;;;;;1.13;84.55;92874.28;4839586;29;20046;-63
2021/12/09 08:29:04;;;;;;;21.67;8.27;;;;;;;1.34;84.14;92870.09;4839044;29;20141;-62
2021/12/09 08:31:33;;;;;;;14.07;5.63;;;;;;;1.21;84.33;92877.78;4839421;29;20045;-62
2021/12/09 08:34:11;;;;;;;9.40;4.80;;;;;;;1.10;84.91;92883.16;4838468;29;20141;-62
2021/12/09 08:36:46;;;;;;;10.13;5.10;;;;;;;1.16;85.03;92897.84;4839358;29;20050;-63
2021/12/09 08:39:18;;;;;;;12.23;4.30;;;;;;;1.11;84.50;92882.00;4839074;29;20117;-62
2021/12/09 08:41:46;;;;;;;10.30;5.05;;;;;;;1.18;84.61;92890.13;4839340;29;20042;-62
2021/12/09 08:44:14;;;;;;;10.57;4.28;;;;;;;0.81;85.64;92887.66;4838947;29;20050;-62
2021/12/09 08:46:41;;;;;;;13.80;4.50;;;;;;;0.66;86.01;92897.59;4839432;29;20053;-62
2021/12/09 08:49:08;;;;;;;11.30;4.20;;;;;;;0.93;85.34;92887.34;4838883;29;20076;-62
2021/12/09 08:51:37;;;;;;;9.63;4.30;;;;;;;1.00;84.78;92903.56;4839389;29;20104;-62
2021/12/09 08:54:04;;;;;;;12.77;4.43;;;;;;;1.06;83.50;92901.28;4839020;29;20072;-62
2021/12/09 08:56:32;;;;;;;14.70;5.85;;;;;;;1.21;83.23;92904.81;4838899;29;20056;-62
2021/12/09 08:59:03;;;;;;;14.13;5.80;;;;;;;1.41;83.20;92907.97;4839407;29;20057;-62
2021/12/09 09:01:29;;;;;;;13.80;5.73;;;;;;;1.38;82.22;92906.78;4838354;29;21603;-63
2021/12/09 09:03:56;;;;;;;24.15;7.50;;;;;;;1.38;82.51;92897.91;4839168;29;20048;-63
2021/12/09 09:06:23;;;;;;;49.72;20.15;;;;;;;1.33;82.22;92906.41;4838711;29;20056;-62
2021/12/09 09:08:56;;;;;;;10.18;3.70;;;;;;;1.41;81.09;92918.78;4839211;29;20046;-63
2021/12/09 09:11:28;;;;;;;6.68;2.85;;;;;;;1.46;80.61;92909.53;4838463;29;20557;-62
2021/12/09 09:13:55;;;;;;;13.40;4.10;;;;;;;1.71;80.25;92914.97;4838111;29;20141;-63
2021/12/09 09:16:22;;;;;;;12.85;3.65;;;;;;;1.74;79.97;92914.22;4838534;29;20050;-62
2021/12/09 09:18:53;;;;;;;10.85;3.10;;;;;;;1.82;79.06;92918.47;4839227;29;20074;-63
2021/12/09 09:21:20;;;;;;;5.88;2.45;;;;;;;1.73;79.30;92921.56;4838533;29;20046;-63
2021/12/09 09:23:46;;;;;;;7.28;3.00;;;;;;;1.91;78.49;92935.13;4839135;29;20053;-62
2021/12/09 09:26:13;;;;;;;7.77;2.97;;;;;;;1.98;78.00;92932.41;4838351;29;20050;-62
2021/12/09 09:28:40;;;;;;;6.80;3.10;;;;;;;2.26;77.49;92938.25;4839343;29;20052;-63
2021/12/09 09:31:08;;;;;;;6.22;3.10;;;;;;;1.71;78.10;92945.53;4838712;29;20053;-62
2021/12/09 09:33:35;;;;;;;8.57;3.53;;;;;;;1.62;79.28;92942.38;4838918;29;20050;-63
2021/12/09 09:36:03;;;;;;;10.18;4.38;;;;;;;2.14;77.98;92940.16;4838391;29;20057;-61
2021/12/09 09:38:30;;;;;;;5.70;2.93;;;;;;;1.42;78.73;92949.28;4839120;29;20065;-62
2021/12/09 09:41:07;;;;;;;9.88;3.88;;;;;;;1.18;80.98;92943.41;4837574;29;20053;-62
2021/12/09 09:43:55;;;;;;;7.63;3.35;;;;;;;1.57;79.47;92946.25;4838027;29;20572;-62
2021/12/09 09:46:29;;;;;;;6.75;3.55;;;;;;;1.50;79.52;92943.50;4841206;29;20050;-62
2021/12/09 09:48:58;;;;;;;7.82;3.90;;;;;;;1.44;79.83;92950.44;4842048;29;20054;-63
2021/12/09 09:51:27;;;;;;;9.17;4.77;;;;;;;1.55;80.11;92953.19;4841438;29;20048;-62
2021/12/09 09:53:54;;;;;;;11.25;5.95;;;;;;;1.67;80.15;92952.06;4840767;29;20050;-63
2021/12/09 09:56:23;;;;;;;7.88;4.10;;;;;;;1.54;80.20;92949.69;4841533;29;20058;-62
2021/12/09 09:58:57;;;;;;;7.78;3.53;;;;;;;1.75;79.68;92950.91;4841905;29;20042;-62
2021/12/09 10:01:25;;;;;;;8.75;4.30;;;;;;;2.28;78.51;92957.56;4840279;29;20056;-62
2021/12/09 10:04:09;;;;;;;8.83;3.83;;;;;;;2.37;77.39;92950.63;4841675;29;20057;-62
2021/12/09 10:06:42;;;;;;;7.40;3.30;;;;;;;2.46;75.44;92946.75;4841071;29;20057;-62
2021/12/09 10:09:12;;;;;;;9.15;3.80;;;;;;;2.22;77.50;92949.06;4841267;29;20403;-61
2021/12/09 10:11:39;;;;;;;16.15;4.10;;;;;;;2.57;76.85;92942.09;4841452;29;20054;-62
2021/12/09 10:14:25;;;;;;;7.70;3.22;;;;;;;2.39;76.06;92940.19;4841417;29;20056;-61
2021/12/09 10:17:11;;;;;;;6.17;2.80;;;;;;;2.14;77.30;92932.03;4841865;29;20118;-61
2021/12/09 10:19:52;;;;;;;4.65;2.58;;;;;;;1.78;77.04;92931.22;4840489;29;22328;-61
2021/12/09 10:22:22;;;;;;;9.50;4.30;;;;;;;2.26;76.93;92925.47;4841282;29;20076;-61
2021/12/09 10:24:52;;;;;;;5.70;2.60;;;;;;;2.57;75.52;92920.41;4841438;29;20053;-62
2021/12/09 10:27:26;;;;;;;7.53;2.50;;;;;;;3.02;74.35;92912.59;4841105;29;20057;-61
2021/12/09 10:30:15;;;;;;;10.43;3.93;;;;;;;3.07;74.20;92900.56;4841668;29;20406;-62
2021/12/09 10:32:43;;;;;;;6.70;2.80;;;;;;;2.88;72.82;92902.56;4840562;29;20950;-61
2021/12/09 10:35:15;;;;;;;7.50;2.88;;;;;;;3.29;72.78;92912.88;4841210;29;20041;-62
2021/12/09 10:37:43;;;;;;;8.95;2.92;;;;;;;2.70;74.00;92908.03;4841501;29;20050;-62
2021/12/09 10:40:17;;;;;;;10.48;3.22;;;;;;;3.08;72.11;92907.53;4840563;29;20054;-61
2021/12/09 10:42:54;;;;;;;8.00;2.80;;;;;;;3.71;71.36;92913.84;4841445;29;20041;-62
2021/12/09 10:45:33;;;;;;;8.07;3.55;;;;;;;3.65;70.37;92920.06;4840830;29;20053;-62
2021/12/09 10:48:26;;;;;;;13.88;4.25;;;;;;;3.71;70.97;92918.50;4839321;29;20057;-61
2021/12/09 10:53:35;;;;;;;5.75;3.00;;;;;;;4.01;68.57;92920.63;4840342;29;20050;-62
2021/12/09 10:56:13;;;;;;;7.57;2.40;;;;;;;3.85;70.00;92912.97;4840416;29;20046;-60
2021/12/09 10:58:44;;;;;;;8.90;2.33;;;;;;;3.73;69.92;92914.22;4840889;29;20045;-62
2021/12/09 11:01:13;;;;;;;5.82;2.22;;;;;;;4.09;68.89;92919.41;4840599;29;20510;-61
2021/12/09 11:03:43;;;;;;;4.90;2.13;;;;;;;4.39;66.87;92916.09;4854250;29;20068;-62
2021/12/09 11:06:30;;;;;;;7.03;2.80;;;;;;;4.09;68.38;92918.66;4840269;29;20058;-62
2021/12/09 11:08:59;;;;;;;6.93;3.00;;;;;;;4.23;69.07;92912.34;4840165;29;20069;-62
2021/12/09 11:11:34;;;;;;;6.43;2.88;;;;;;;4.12;68.47;92909.69;4839365;29;20049;-62
2021/12/09 11:14:12;;;;;;;6.97;4.03;;;;;;;3.16;71.33;92909.84;4840673;29;20426;-62
2021/12/09 11:16:43;;;;;;;12.85;6.97;;;;;;;3.58;71.31;92902.69;4839807;29;21496;-62
2021/12/09 11:19:15;;;;;;;6.97;4.00;;;;;;;3.75;69.74;92913.81;4840100;29;20046;-62
2021/12/09 11:21:46;;;;;;;7.33;3.50;;;;;;;3.85;69.09;92920.34;4840759;29;20048;-62
2021/12/09 11:24:17;;;;;;;5.82;2.50;;;;;;;3.64;69.21;92915.81;4839787;29;20050;-62
2021/12/09 11:26:55;;;;;;;6.72;2.90;;;;;;;3.73;69.26;92916.91;4839102;29;20041;-62
2021/12/09 11:29:35;;;;;;;9.15;3.17;;;;;;;3.89;70.17;92921.09;4840326;29;20068;-62
2021/12/09 11:32:18;;;;;;;8.80;4.78;;;;;;;3.66;69.33;92921.59;4840118;29;20061;-60
2021/12/09 11:35:11;;;;;;;6.53;3.33;;;;;;;3.64;70.03;92913.09;4840416;29;20052;-62
2021/12/09 11:37:54;;;;;;;6.93;3.25;;;;;;;3.93;70.41;92919.91;4839535;29;20042;-62
2021/12/09 11:40:48;;;;;;;5.15;2.58;;;;;;;4.08;67.35;92911.66;4839880;29;20095;-62
2021/12/09 11:43:13;;;;;;;7.47;2.80;;;;;;;3.70;68.39;92906.88;4839708;29;20050;-62
2021/12/09 11:45:44;;;;;;;7.85;3.58;;;;;;;3.28;70.27;92919.47;4840226;29;20122;-62
2021/12/09 11:48:12;;;;;;;7.43;2.93;;;;;;;3.04;71.16;92915.69;4839698;29;20062;-62
2021/12/09 11:50:43;;;;;;;7.40;3.28;;;;;;;3.54;71.06;92912.78;4853974;29;20050;-62
2021/12/09 11:53:14;;;;;;;9.30;3.05;;;;;;;3.65;69.12;92915.41;4839164;29;20058;-62